sensor_id;sensor_type;location;lat;lon;timestamp;temperature;humidity
62904;DHT22;49000;50.698;13.322;2022-09-09T11:20:06;22.30;14.30
62904;DHT22;49000;50.698;13.322;2022-09-09T11:22:43;22.10;11.50
62904;DHT22;49000;50.698;13.322;2022-09-09T11:25:17;22.00;14.50
62904;DHT22;49000;50.698;13.322;2022-09-09T11:33:45;21.20;13.40
62904;DHT22;49000;50.698;13.322;2022-09-09T11:36:44;21.30;12.70
62904;DHT22;49000;50.698;13.322;2022-09-09T11:42:16;22.40;15.20
62904;DHT22;49000;50.698;13.322;2022-09-09T11:44:43;22.40;8.80
62904;DHT22;49000;50.698;13.322;2022-09-09T11:47:23;22.50;10.00
62904;DHT22;49000;50.698;13.322;2022-09-09T11:50:07;22.50;6.60
62904;DHT22;49000;50.698;13.322;2022-09-09T11:52:42;22.40;4.40
62904;DHT22;49000;50.698;13.322;2022-09-09T11:55:27;22.70;9.90
62904;DHT22;49000;50.698;13.322;2022-09-09T11:57:58;22.70;6.50
62904;DHT22;49000;50.698;13.322;2022-09-09T12:00:39;22.70;6.80
62904;DHT22;49000;50.698;13.322;2022-09-09T12:06:08;22.70;7.50
62904;DHT22;49000;50.698;13.322;2022-09-09T12:08:35;22.80;8.50
62904;DHT22;49000;50.698;13.322;2022-09-09T12:11:02;22.80;7.70
62904;DHT22;49000;50.698;13.322;2022-09-09T12:13:31;22.20;7.10
62904;DHT22;49000;50.698;13.322;2022-09-09T12:15:58;22.50;11.10
62904;DHT22;49000;50.698;13.322;2022-09-09T12:18:36;23.20;3.80
62904;DHT22;49000;50.698;13.322;2022-09-09T12:21:34;23.90;4.20
62904;DHT22;49000;50.698;13.322;2022-09-09T12:24:16;23.50;4.10
62904;DHT22;49000;50.698;13.322;2022-09-09T12:27:02;22.80;4.20
62904;DHT22;49000;50.698;13.322;2022-09-09T12:29:47;22.30;6.00
62904;DHT22;49000;50.698;13.322;2022-09-09T12:32:20;22.20;9.70
62904;DHT22;49000;50.698;13.322;2022-09-09T12:34:53;22.50;12.40
62904;DHT22;49000;50.698;13.322;2022-09-09T12:37:36;23.40;7.30
62904;DHT22;49000;50.698;13.322;2022-09-09T12:40:05;24.30;6.60
62904;DHT22;49000;50.698;13.322;2022-09-09T12:42:31;24.60;2.10
62904;DHT22;49000;50.698;13.322;2022-09-09T12:45:02;24.80;1.00
62904;DHT22;49000;50.698;13.322;2022-09-09T12:50:03;24.90;3.30
62904;DHT22;49000;50.698;13.322;2022-09-09T12:52:33;25.30;1.00
62904;DHT22;49000;50.698;13.322;2022-09-09T12:55:02;25.50;1.00
62904;DHT22;49000;50.698;13.322;2022-09-09T12:57:35;25.90;1.00
62904;DHT22;49000;50.698;13.322;2022-09-09T13:00:14;26.10;1.00
62904;DHT22;49000;50.698;13.322;2022-09-09T13:02:48;26.30;1.00
62904;DHT22;49000;50.698;13.322;2022-09-09T13:05:26;26.10;1.00
62904;DHT22;49000;50.698;13.322;2022-09-09T13:07:59;26.30;1.00
62904;DHT22;49000;50.698;13.322;2022-09-09T13:10:29;26.30;1.00
62904;DHT22;49000;50.698;13.322;2022-09-09T13:12:57;26.50;1.00
62904;DHT22;49000;50.698;13.322;2022-09-09T13:15:24;26.90;1.00
62904;DHT22;49000;50.698;13.322;2022-09-09T13:17:55;26.80;1.00
62904;DHT22;49000;50.698;13.322;2022-09-09T13:20:22;26.90;1.00
62904;DHT22;49000;50.698;13.322;2022-09-09T13:22:50;26.20;1.00
62904;DHT22;49000;50.698;13.322;2022-09-09T13:25:26;25.40;1.00
62904;DHT22;49000;50.698;13.322;2022-09-09T13:30:32;24.60;1.70
62904;DHT22;49000;50.698;13.322;2022-09-09T13:33:03;24.70;1.00
62904;DHT22;49000;50.698;13.322;2022-09-09T13:35:29;24.50;1.30
62904;DHT22;49000;50.698;13.322;2022-09-09T13:37:55;24.30;2.40
62904;DHT22;49000;50.698;13.322;2022-09-09T13:40:22;23.90;1.00
62904;DHT22;49000;50.698;13.322;2022-09-09T13:42:52;23.90;3.60
62904;DHT22;49000;50.698;13.322;2022-09-09T13:45:21;23.90;5.40
62904;DHT22;49000;50.698;13.322;2022-09-09T13:47:47;23.90;4.50
62904;DHT22;49000;50.698;13.322;2022-09-09T13:52:47;23.70;4.20
62904;DHT22;49000;50.698;13.322;2022-09-09T13:55:12;23.50;4.90
62904;DHT22;49000;50.698;13.322;2022-09-09T13:57:38;23.30;4.00
62904;DHT22;49000;50.698;13.322;2022-09-09T14:00:05;23.10;5.60
62904;DHT22;49000;50.698;13.322;2022-09-09T14:02:32;22.80;3.50
62904;DHT22;49000;50.698;13.322;2022-09-09T14:04:58;22.70;6.80
62904;DHT22;49000;50.698;13.322;2022-09-09T14:07:24;22.80;3.50
62904;DHT22;49000;50.698;13.322;2022-09-09T14:09:50;23.10;5.60
62904;DHT22;49000;50.698;13.322;2022-09-09T14:12:17;23.40;7.30
62904;DHT22;49000;50.698;13.322;2022-09-09T14:14:42;23.50;3.80
62904;DHT22;49000;50.698;13.322;2022-09-09T14:17:09;23.80;4.20
62904;DHT22;49000;50.698;13.322;2022-09-09T14:19:34;24.10;3.40
62904;DHT22;49000;50.698;13.322;2022-09-09T14:22:00;24.00;1.00
62904;DHT22;49000;50.698;13.322;2022-09-09T14:24:26;24.20;2.30
62904;DHT22;49000;50.698;13.322;2022-09-09T14:26:53;24.40;2.30
62904;DHT22;49000;50.698;13.322;2022-09-09T14:29:18;24.20;1.00
62904;DHT22;49000;50.698;13.322;2022-09-09T14:31:44;23.80;1.00
62904;DHT22;49000;50.698;13.322;2022-09-09T14:34:09;23.30;1.00
62904;DHT22;49000;50.698;13.322;2022-09-09T14:36:36;23.00;3.60
62904;DHT22;49000;50.698;13.322;2022-09-09T14:39:02;22.80;3.70
62904;DHT22;49000;50.698;13.322;2022-09-09T14:41:29;22.40;2.10
62904;DHT22;49000;50.698;13.322;2022-09-09T14:43:54;22.10;3.80
62904;DHT22;49000;50.698;13.322;2022-09-09T14:46:20;21.90;4.90
62904;DHT22;49000;50.698;13.322;2022-09-09T14:48:46;22.00;6.80
62904;DHT22;49000;50.698;13.322;2022-09-09T14:51:22;22.00;7.70
62904;DHT22;49000;50.698;13.322;2022-09-09T14:53:47;22.00;8.90
62904;DHT22;49000;50.698;13.322;2022-09-09T14:56:22;21.80;7.60
62904;DHT22;49000;50.698;13.322;2022-09-09T14:58:48;21.80;8.90
62904;DHT22;49000;50.698;13.322;2022-09-09T15:01:16;21.70;8.60
62904;DHT22;49000;50.698;13.322;2022-09-09T15:03:49;21.60;6.60
62904;DHT22;49000;50.698;13.322;2022-09-09T15:06:15;21.50;8.40
62904;DHT22;49000;50.698;13.322;2022-09-09T15:08:42;21.50;8.80
62904;DHT22;49000;50.698;13.322;2022-09-09T15:11:09;21.30;7.50
62904;DHT22;49000;50.698;13.322;2022-09-09T15:13:36;21.20;7.10
62904;DHT22;49000;50.698;13.322;2022-09-09T15:16:18;21.00;8.80
62904;DHT22;49000;50.698;13.322;2022-09-09T15:18:45;21.00;9.00
62904;DHT22;49000;50.698;13.322;2022-09-09T15:21:19;21.10;10.30
62904;DHT22;49000;50.698;13.322;2022-09-09T15:23:46;21.00;7.30
62904;DHT22;49000;50.698;13.322;2022-09-09T15:26:12;21.00;9.00
62904;DHT22;49000;50.698;13.322;2022-09-09T15:28:40;20.80;9.80
62904;DHT22;49000;50.698;13.322;2022-09-09T15:31:14;20.90;11.40
62904;DHT22;49000;50.698;13.322;2022-09-09T15:33:41;20.90;12.80
62904;DHT22;49000;50.698;13.322;2022-09-09T15:38:39;20.80;14.00
62904;DHT22;49000;50.698;13.322;2022-09-09T15:41:05;20.80;14.30
62904;DHT22;49000;50.698;13.322;2022-09-09T15:43:31;20.80;11.60
62904;DHT22;49000;50.698;13.322;2022-09-09T15:46:00;20.70;14.40
62904;DHT22;49000;50.698;13.322;2022-09-09T15:48:31;20.70;12.40
62904;DHT22;49000;50.698;13.322;2022-09-09T15:51:04;20.70;13.20
62904;DHT22;49000;50.698;13.322;2022-09-09T15:53:30;20.60;13.80
62904;DHT22;49000;50.698;13.322;2022-09-09T15:55:58;20.50;11.50
62904;DHT22;49000;50.698;13.322;2022-09-09T15:58:23;20.40;12.90
62904;DHT22;49000;50.698;13.322;2022-09-09T16:00:49;20.40;14.90
62904;DHT22;49000;50.698;13.322;2022-09-09T16:03:14;20.30;14.80
62904;DHT22;49000;50.698;13.322;2022-09-09T16:05:40;20.30;11.80
62904;DHT22;49000;50.698;13.322;2022-09-09T16:08:06;20.10;11.90
62904;DHT22;49000;50.698;13.322;2022-09-09T16:10:32;20.00;16.00
62904;DHT22;49000;50.698;13.322;2022-09-09T16:12:57;20.00;17.90
62904;DHT22;49000;50.698;13.322;2022-09-09T16:15:23;19.90;17.70
62904;DHT22;49000;50.698;13.322;2022-09-09T16:17:48;19.80;19.60
62904;DHT22;49000;50.698;13.322;2022-09-09T16:20:14;19.70;16.50
62904;DHT22;49000;50.698;13.322;2022-09-09T16:22:40;19.50;14.60
62904;DHT22;49000;50.698;13.322;2022-09-09T16:25:06;19.50;14.60
62904;DHT22;49000;50.698;13.322;2022-09-09T16:27:31;19.30;14.40
62904;DHT22;49000;50.698;13.322;2022-09-09T16:29:57;19.20;12.50
62904;DHT22;49000;50.698;13.322;2022-09-09T16:32:22;19.10;14.40
62904;DHT22;49000;50.698;13.322;2022-09-09T16:34:48;19.10;14.70
62904;DHT22;49000;50.698;13.322;2022-09-09T16:37:13;19.10;14.30
62904;DHT22;49000;50.698;13.322;2022-09-09T16:39:39;19.10;14.40
62904;DHT22;49000;50.698;13.322;2022-09-09T16:42:04;19.00;13.30
62904;DHT22;49000;50.698;13.322;2022-09-09T16:44:30;18.90;13.20
62904;DHT22;49000;50.698;13.322;2022-09-09T16:46:55;18.90;13.50
62904;DHT22;49000;50.698;13.322;2022-09-09T16:49:21;19.00;12.60
62904;DHT22;49000;50.698;13.322;2022-09-09T16:51:48;18.90;14.20
62904;DHT22;49000;50.698;13.322;2022-09-09T16:54:15;18.90;13.20
62904;DHT22;49000;50.698;13.322;2022-09-09T16:56:43;18.70;13.00
62904;DHT22;49000;50.698;13.322;2022-09-09T16:59:17;18.60;14.00
62904;DHT22;49000;50.698;13.322;2022-09-09T17:01:45;18.50;13.40
62904;DHT22;49000;50.698;13.322;2022-09-09T17:04:16;18.40;13.40
62904;DHT22;49000;50.698;13.322;2022-09-09T17:06:46;18.30;13.80
62904;DHT22;49000;50.698;13.322;2022-09-09T17:09:12;18.30;13.80
62904;DHT22;49000;50.698;13.322;2022-09-09T17:11:39;18.20;12.50
62904;DHT22;49000;50.698;13.322;2022-09-09T17:14:06;18.10;12.10
62904;DHT22;49000;50.698;13.322;2022-09-09T17:16:33;18.10;12.50
62904;DHT22;49000;50.698;13.322;2022-09-09T17:19:03;18.10;13.50
62904;DHT22;49000;50.698;13.322;2022-09-09T17:21:29;18.10;12.80
62904;DHT22;49000;50.698;13.322;2022-09-09T17:23:56;17.90;12.20
62904;DHT22;49000;50.698;13.322;2022-09-09T17:26:25;17.90;12.30
62904;DHT22;49000;50.698;13.322;2022-09-09T17:28:56;17.90;13.50
62904;DHT22;49000;50.698;13.322;2022-09-09T17:31:24;17.90;13.50
62904;DHT22;49000;50.698;13.322;2022-09-09T17:33:52;17.90;15.60
62904;DHT22;49000;50.698;13.322;2022-09-09T17:36:25;17.90;17.50
62904;DHT22;49000;50.698;13.322;2022-09-09T17:38:52;17.80;17.50
62904;DHT22;49000;50.698;13.322;2022-09-09T17:41:19;17.80;17.50
62904;DHT22;49000;50.698;13.322;2022-09-09T17:43:46;17.60;18.40
62904;DHT22;49000;50.698;13.322;2022-09-09T17:46:16;17.60;20.50
62904;DHT22;49000;50.698;13.322;2022-09-09T17:48:43;17.50;19.80
62904;DHT22;49000;50.698;13.322;2022-09-09T17:51:13;17.40;20.10
62904;DHT22;49000;50.698;13.322;2022-09-09T17:53:42;17.40;21.30
62904;DHT22;49000;50.698;13.322;2022-09-09T17:56:09;17.30;23.10
62904;DHT22;49000;50.698;13.322;2022-09-09T17:58:35;17.30;23.50
62904;DHT22;49000;50.698;13.322;2022-09-09T18:01:06;17.20;25.00
62904;DHT22;49000;50.698;13.322;2022-09-09T18:03:39;17.10;25.40
62904;DHT22;49000;50.698;13.322;2022-09-09T18:06:07;17.00;25.60
62904;DHT22;49000;50.698;13.322;2022-09-09T18:08:34;16.90;26.90
62904;DHT22;49000;50.698;13.322;2022-09-09T18:11:00;16.80;26.50
62904;DHT22;49000;50.698;13.322;2022-09-09T18:13:26;16.80;26.90
62904;DHT22;49000;50.698;13.322;2022-09-09T18:15:52;16.70;27.40
62904;DHT22;49000;50.698;13.322;2022-09-09T18:18:18;16.70;27.30
62904;DHT22;49000;50.698;13.322;2022-09-09T18:20:44;16.60;27.90
62904;DHT22;49000;50.698;13.322;2022-09-09T18:23:10;16.60;28.40
62904;DHT22;49000;50.698;13.322;2022-09-09T18:25:39;16.60;29.50
62904;DHT22;49000;50.698;13.322;2022-09-09T18:28:05;16.50;31.10
62904;DHT22;49000;50.698;13.322;2022-09-09T18:30:30;16.50;29.10
62904;DHT22;49000;50.698;13.322;2022-09-09T18:32:56;16.40;29.10
62904;DHT22;49000;50.698;13.322;2022-09-09T18:35:22;16.40;30.00
62904;DHT22;49000;50.698;13.322;2022-09-09T18:37:48;16.30;30.20
62904;DHT22;49000;50.698;13.322;2022-09-09T18:40:13;16.20;31.70
62904;DHT22;49000;50.698;13.322;2022-09-09T18:42:39;16.20;31.40
62904;DHT22;49000;50.698;13.322;2022-09-09T18:45:04;16.20;30.70
62904;DHT22;49000;50.698;13.322;2022-09-09T18:47:30;16.20;31.20
62904;DHT22;49000;50.698;13.322;2022-09-09T18:49:55;16.10;30.90
62904;DHT22;49000;50.698;13.322;2022-09-09T18:52:21;16.00;33.30
62904;DHT22;49000;50.698;13.322;2022-09-09T18:54:47;15.90;33.50
62904;DHT22;49000;50.698;13.322;2022-09-09T18:57:13;15.90;32.10
62904;DHT22;49000;50.698;13.322;2022-09-09T18:59:38;15.80;33.10
62904;DHT22;49000;50.698;13.322;2022-09-09T19:02:04;15.70;34.90
62904;DHT22;49000;50.698;13.322;2022-09-09T19:04:30;15.60;33.80
62904;DHT22;49000;50.698;13.322;2022-09-09T19:06:57;15.50;34.80
62904;DHT22;49000;50.698;13.322;2022-09-09T19:09:24;15.40;35.00
62904;DHT22;49000;50.698;13.322;2022-09-09T19:11:50;15.20;35.00
62904;DHT22;49000;50.698;13.322;2022-09-09T19:14:16;15.20;38.20
62904;DHT22;49000;50.698;13.322;2022-09-09T19:16:43;15.10;38.20
62904;DHT22;49000;50.698;13.322;2022-09-09T19:19:19;15.10;38.20
62904;DHT22;49000;50.698;13.322;2022-09-09T19:21:45;15.10;38.20
62904;DHT22;49000;50.698;13.322;2022-09-09T19:24:17;15.00;39.40
62904;DHT22;49000;50.698;13.322;2022-09-09T19:26:47;14.90;40.60
62904;DHT22;49000;50.698;13.322;2022-09-09T19:29:16;14.90;42.30
62904;DHT22;49000;50.698;13.322;2022-09-09T19:31:44;14.80;42.20
62904;DHT22;49000;50.698;13.322;2022-09-09T19:34:10;14.80;42.70
62904;DHT22;49000;50.698;13.322;2022-09-09T19:36:37;14.70;43.20
62904;DHT22;49000;50.698;13.322;2022-09-09T19:39:04;14.70;43.50
62904;DHT22;49000;50.698;13.322;2022-09-09T19:41:29;14.60;50.30
62904;DHT22;49000;50.698;13.322;2022-09-09T19:44:03;14.50;48.90
62904;DHT22;49000;50.698;13.322;2022-09-09T19:46:31;14.50;50.10
62904;DHT22;49000;50.698;13.322;2022-09-09T19:48:58;14.50;51.10
62904;DHT22;49000;50.698;13.322;2022-09-09T19:51:26;14.40;51.60
62904;DHT22;49000;50.698;13.322;2022-09-09T19:53:59;14.50;52.60
62904;DHT22;49000;50.698;13.322;2022-09-09T19:56:28;14.40;52.90
62904;DHT22;49000;50.698;13.322;2022-09-09T19:58:54;14.50;52.60
62904;DHT22;49000;50.698;13.322;2022-09-09T20:03:51;14.40;55.50
62904;DHT22;49000;50.698;13.322;2022-09-09T20:06:19;14.30;57.60
62904;DHT22;49000;50.698;13.322;2022-09-09T20:08:46;14.30;57.20
62904;DHT22;49000;50.698;13.322;2022-09-09T20:11:13;14.20;61.60
62904;DHT22;49000;50.698;13.322;2022-09-09T20:13:40;14.20;63.10
62904;DHT22;49000;50.698;13.322;2022-09-09T20:16:11;14.10;62.90
62904;DHT22;49000;50.698;13.322;2022-09-09T20:18:40;14.10;67.40
62904;DHT22;49000;50.698;13.322;2022-09-09T20:21:12;14.10;70.00
62904;DHT22;49000;50.698;13.322;2022-09-09T20:23:43;14.00;76.70
62904;DHT22;49000;50.698;13.322;2022-09-09T20:26:11;14.10;77.90
62904;DHT22;49000;50.698;13.322;2022-09-09T20:28:38;14.10;81.60
62904;DHT22;49000;50.698;13.322;2022-09-09T20:31:10;14.00;84.30
62904;DHT22;49000;50.698;13.322;2022-09-09T20:33:37;14.00;94.90
62904;DHT22;49000;50.698;13.322;2022-09-09T20:38:44;13.90;99.90
62904;DHT22;49000;50.698;13.322;2022-09-09T20:41:11;13.90;99.90
62904;DHT22;49000;50.698;13.322;2022-09-09T20:43:45;13.80;99.90
62904;DHT22;49000;50.698;13.322;2022-09-09T20:46:13;13.80;99.90
62904;DHT22;49000;50.698;13.322;2022-09-09T20:48:39;13.80;99.90
62904;DHT22;49000;50.698;13.322;2022-09-09T20:51:05;13.80;99.90
62904;DHT22;49000;50.698;13.322;2022-09-09T20:53:34;13.80;99.90
62904;DHT22;49000;50.698;13.322;2022-09-09T20:56:00;13.80;99.90
62904;DHT22;49000;50.698;13.322;2022-09-09T20:58:27;13.80;99.90
62904;DHT22;49000;50.698;13.322;2022-09-09T21:00:53;13.70;99.90
62904;DHT22;49000;50.698;13.322;2022-09-09T21:03:20;13.60;99.90
62904;DHT22;49000;50.698;13.322;2022-09-09T21:05:46;13.70;99.90
62904;DHT22;49000;50.698;13.322;2022-09-09T21:08:12;13.70;99.90
62904;DHT22;49000;50.698;13.322;2022-09-09T21:10:41;13.70;99.90
62904;DHT22;49000;50.698;13.322;2022-09-09T21:13:07;13.60;99.90
62904;DHT22;49000;50.698;13.322;2022-09-09T21:15:33;13.60;99.90
62904;DHT22;49000;50.698;13.322;2022-09-09T21:17:58;13.50;99.90
62904;DHT22;49000;50.698;13.322;2022-09-09T21:20:24;13.50;99.90
62904;DHT22;49000;50.698;13.322;2022-09-09T21:22:50;13.60;99.90
62904;DHT22;49000;50.698;13.322;2022-09-09T21:25:15;13.60;99.90
62904;DHT22;49000;50.698;13.322;2022-09-09T21:27:41;13.60;99.90
62904;DHT22;49000;50.698;13.322;2022-09-09T21:30:07;13.60;99.90
62904;DHT22;49000;50.698;13.322;2022-09-09T21:32:33;13.60;99.90
62904;DHT22;49000;50.698;13.322;2022-09-09T21:34:58;13.60;99.90
62904;DHT22;49000;50.698;13.322;2022-09-09T21:37:24;13.60;99.90
62904;DHT22;49000;50.698;13.322;2022-09-09T21:39:50;13.60;99.90
62904;DHT22;49000;50.698;13.322;2022-09-09T21:42:15;13.60;99.90
62904;DHT22;49000;50.698;13.322;2022-09-09T21:44:41;13.60;99.90
62904;DHT22;49000;50.698;13.322;2022-09-09T21:47:06;13.70;99.90
62904;DHT22;49000;50.698;13.322;2022-09-09T21:49:32;13.70;99.90
62904;DHT22;49000;50.698;13.322;2022-09-09T21:51:57;13.70;99.90
62904;DHT22;49000;50.698;13.322;2022-09-09T21:54:23;13.60;99.90
62904;DHT22;49000;50.698;13.322;2022-09-09T21:56:49;13.60;99.90
62904;DHT22;49000;50.698;13.322;2022-09-09T21:59:16;13.60;99.90
62904;DHT22;49000;50.698;13.322;2022-09-09T22:01:41;13.60;99.90
62904;DHT22;49000;50.698;13.322;2022-09-09T22:04:07;13.60;99.90
62904;DHT22;49000;50.698;13.322;2022-09-09T22:06:32;13.50;99.90
62904;DHT22;49000;50.698;13.322;2022-09-09T22:08:58;13.50;99.90
62904;DHT22;49000;50.698;13.322;2022-09-09T22:11:26;13.50;99.90
62904;DHT22;49000;50.698;13.322;2022-09-09T22:13:52;13.50;99.90
62904;DHT22;49000;50.698;13.322;2022-09-09T22:16:19;13.50;99.90
62904;DHT22;49000;50.698;13.322;2022-09-09T22:18:52;13.40;99.90
62904;DHT22;49000;50.698;13.322;2022-09-09T22:21:19;13.40;99.90
62904;DHT22;49000;50.698;13.322;2022-09-09T22:23:53;13.40;99.90
62904;DHT22;49000;50.698;13.322;2022-09-09T22:26:19;13.40;99.90
62904;DHT22;49000;50.698;13.322;2022-09-09T22:28:45;13.40;99.90
62904;DHT22;49000;50.698;13.322;2022-09-09T22:31:11;13.40;99.90
62904;DHT22;49000;50.698;13.322;2022-09-09T22:33:37;13.40;99.90
62904;DHT22;49000;50.698;13.322;2022-09-09T22:36:02;13.30;99.90
62904;DHT22;49000;50.698;13.322;2022-09-09T22:38:29;13.30;99.90
62904;DHT22;49000;50.698;13.322;2022-09-09T22:40:55;13.30;99.90
62904;DHT22;49000;50.698;13.322;2022-09-09T22:43:21;13.20;99.90
62904;DHT22;49000;50.698;13.322;2022-09-09T22:45:47;13.20;99.90
62904;DHT22;49000;50.698;13.322;2022-09-09T22:48:14;13.20;99.90
62904;DHT22;49000;50.698;13.322;2022-09-09T22:50:40;13.10;99.90
62904;DHT22;49000;50.698;13.322;2022-09-09T22:53:06;13.10;99.90
62904;DHT22;49000;50.698;13.322;2022-09-09T22:55:32;13.10;99.90
62904;DHT22;49000;50.698;13.322;2022-09-09T22:57:58;13.10;99.90
62904;DHT22;49000;50.698;13.322;2022-09-09T23:00:25;13.00;99.90
62904;DHT22;49000;50.698;13.322;2022-09-09T23:02:50;13.00;99.90
62904;DHT22;49000;50.698;13.322;2022-09-09T23:05:16;12.90;99.90
62904;DHT22;49000;50.698;13.322;2022-09-09T23:07:44;12.90;99.90
62904;DHT22;49000;50.698;13.322;2022-09-09T23:10:11;12.90;99.90
62904;DHT22;49000;50.698;13.322;2022-09-09T23:12:37;12.80;99.90
62904;DHT22;49000;50.698;13.322;2022-09-09T23:15:06;12.70;99.90
62904;DHT22;49000;50.698;13.322;2022-09-09T23:17:35;12.70;99.90
62904;DHT22;49000;50.698;13.322;2022-09-09T23:20:02;12.70;99.90
62904;DHT22;49000;50.698;13.322;2022-09-09T23:22:28;12.60;99.90
62904;DHT22;49000;50.698;13.322;2022-09-09T23:24:54;12.60;99.90
62904;DHT22;49000;50.698;13.322;2022-09-09T23:27:20;12.60;99.90
62904;DHT22;49000;50.698;13.322;2022-09-09T23:29:48;12.50;99.90
62904;DHT22;49000;50.698;13.322;2022-09-09T23:32:15;12.50;99.90
62904;DHT22;49000;50.698;13.322;2022-09-09T23:34:41;12.50;99.90
62904;DHT22;49000;50.698;13.322;2022-09-09T23:37:06;12.50;99.90
62904;DHT22;49000;50.698;13.322;2022-09-09T23:39:33;12.50;99.90
62904;DHT22;49000;50.698;13.322;2022-09-09T23:41:59;12.40;99.90
62904;DHT22;49000;50.698;13.322;2022-09-09T23:44:24;12.40;99.90
62904;DHT22;49000;50.698;13.322;2022-09-09T23:46:50;12.40;99.90
62904;DHT22;49000;50.698;13.322;2022-09-09T23:49:15;12.40;99.90
62904;DHT22;49000;50.698;13.322;2022-09-09T23:51:41;12.40;99.90
62904;DHT22;49000;50.698;13.322;2022-09-09T23:54:07;12.40;99.90
62904;DHT22;49000;50.698;13.322;2022-09-09T23:56:39;12.40;99.90
62904;DHT22;49000;50.698;13.322;2022-09-09T23:59:06;12.40;99.90
